createdAt,value
2016-11-11T08:11:11.904Z,2
2016-11-11T08:12:15.031Z,1.9
2016-11-11T08:13:18.158Z,2.1
2016-11-11T08:14:21.283Z,2.1
2016-11-11T08:15:24.405Z,2.3
2016-11-11T08:16:27.532Z,2.3
2016-11-11T08:17:30.662Z,2.4
2016-11-11T08:18:33.783Z,2.5
2016-11-11T08:19:36.904Z,2.5
2016-11-11T08:20:40.032Z,2.5
2016-11-11T08:21:43.158Z,2.5
2016-11-11T08:22:46.290Z,2.5
2016-11-11T08:23:49.413Z,2.6
2016-11-11T08:24:52.537Z,2.6
2016-11-11T08:25:55.667Z,2.7
2016-11-11T08:26:58.790Z,2.7
2016-11-11T08:28:01.920Z,2.7
2016-11-11T08:29:05.042Z,2.8
2016-11-11T08:30:08.168Z,2.8
2016-11-11T08:31:11.299Z,2.9
2016-11-11T08:32:14.423Z,3
2016-11-11T08:33:17.552Z,3.1
2016-11-11T08:34:20.683Z,3.1
2016-11-11T08:35:23.802Z,3.3
2016-11-11T08:36:26.928Z,3.3
2016-11-11T08:37:30.052Z,3.4
2016-11-11T08:38:33.183Z,3.5
2016-11-11T08:39:36.300Z,3.5
2016-11-11T08:40:39.431Z,3.5
2016-11-11T08:41:42.555Z,3.5
2016-11-11T08:42:45.682Z,3.5
2016-11-11T08:43:48.806Z,3.6
2016-11-11T08:44:51.928Z,3.7
2016-11-11T08:45:55.057Z,3.7
2016-11-11T08:46:58.183Z,3.7
2016-11-11T08:48:01.305Z,3.7
2016-11-11T08:49:04.427Z,3.7
2016-11-11T08:50:07.551Z,3.8
2016-11-11T08:51:10.674Z,3.8
2016-11-11T08:52:13.809Z,3.9
2016-11-11T08:53:16.935Z,3.8
2016-11-11T08:54:20.059Z,3.9
2016-11-11T08:55:23.183Z,3.9
2016-11-11T08:56:26.309Z,4.1
2016-11-11T08:57:29.438Z,4.1
2016-11-11T08:58:32.566Z,4.1
2016-11-11T08:59:35.696Z,4.2
2016-11-11T09:00:38.821Z,4.3
2016-11-11T09:01:41.938Z,4.4
2016-11-11T09:02:45.072Z,4.5
2016-11-11T09:03:48.193Z,4.6
2016-11-11T09:04:51.317Z,4.5
2016-11-11T09:05:54.441Z,4.4
2016-11-11T09:06:57.583Z,4.4
2016-11-11T09:08:00.702Z,4.4
2016-11-11T09:09:03.825Z,4.5
2016-11-11T09:10:06.947Z,4.5
2016-11-11T09:11:10.081Z,4.6
2016-11-11T09:12:13.203Z,4.7
2016-11-11T09:13:16.332Z,4.8
2016-11-11T09:14:19.454Z,4.9
2016-11-11T09:15:22.574Z,4.8
2016-11-11T09:16:25.699Z,4.8
2016-11-11T09:17:28.824Z,4.9
2016-11-11T09:18:31.951Z,4.8
2016-11-11T09:19:35.081Z,4.8
2016-11-11T09:20:38.202Z,4.8
2016-11-11T09:21:41.326Z,4.9
2016-11-11T09:22:44.448Z,4.9
2016-11-11T09:23:47.578Z,5
2016-11-11T09:24:50.701Z,5
2016-11-11T09:25:53.831Z,5.1
2016-11-11T09:26:56.958Z,5.2
2016-11-11T09:28:00.087Z,5.3
2016-11-11T09:29:03.215Z,5.3
2016-11-11T09:30:06.338Z,5.3
2016-11-11T09:31:09.464Z,5.3
2016-11-11T09:32:12.583Z,5.4
2016-11-11T09:33:15.703Z,5.5
2016-11-11T09:34:18.825Z,5.6
2016-11-11T09:35:21.953Z,5.7
2016-11-11T09:36:25.078Z,5.7
2016-11-11T09:37:28.200Z,5.8
2016-11-11T09:38:31.333Z,5.8
2016-11-11T09:39:34.459Z,5.9
2016-11-11T09:40:37.588Z,5.9
2016-11-11T09:41:40.715Z,6
2016-11-11T09:42:43.836Z,6.1
2016-11-11T09:43:46.952Z,6.1
2016-11-11T09:44:50.081Z,6.3
2016-11-11T09:45:53.212Z,6.5
2016-11-11T09:46:56.333Z,6.5
2016-11-11T09:47:59.460Z,6.5
2016-11-11T09:49:02.590Z,6.6
2016-11-11T09:50:05.718Z,6.5
2016-11-11T09:51:08.839Z,6.6
2016-11-11T09:52:11.970Z,6.6
2016-11-11T09:53:15.094Z,6.5
2016-11-11T09:54:18.218Z,6.5
2016-11-11T09:55:21.341Z,6.6
2016-11-11T09:56:24.467Z,6.8
2016-11-11T09:57:27.592Z,7
2016-11-11T09:58:30.713Z,7.2
2016-11-11T09:59:33.837Z,7.3
2016-11-11T10:00:36.963Z,7.4
2016-11-11T10:01:40.087Z,7.5
2016-11-11T10:02:43.207Z,7.5
2016-11-11T10:03:46.327Z,7.6
2016-11-11T10:04:49.464Z,7.7
2016-11-11T10:05:52.590Z,7.8
2016-11-11T10:06:55.717Z,7.8
2016-11-11T10:07:58.834Z,7.7
2016-11-11T10:09:01.965Z,7.9
2016-11-11T10:10:05.089Z,7.9
2016-11-11T10:11:08.207Z,8.1
2016-11-11T10:12:11.322Z,8.1
2016-11-11T10:13:14.455Z,8.2
2016-11-11T10:14:17.580Z,8.1
2016-11-11T10:15:20.700Z,8.1
2016-11-11T10:16:23.829Z,8.2
2016-11-11T10:17:26.957Z,8.1
2016-11-11T10:18:30.077Z,8.2
2016-11-11T10:19:33.199Z,8.2
2016-11-11T10:20:36.333Z,8.3
2016-11-11T10:21:39.460Z,8.4
2016-11-11T10:22:42.580Z,8.4
2016-11-11T10:23:45.709Z,8.6
2016-11-11T10:24:48.835Z,8.7
2016-11-11T10:25:51.957Z,8.7
2016-11-11T10:26:55.089Z,8.7
2016-11-11T10:27:58.208Z,8.7
2016-11-11T10:29:01.333Z,8.8
2016-11-11T10:30:04.457Z,8.7
2016-11-11T10:31:07.595Z,8.8
2016-11-11T10:32:10.712Z,8.8
2016-11-11T10:33:13.835Z,8.8
2016-11-11T10:34:16.963Z,8.8
2016-11-11T10:35:20.094Z,8.9
2016-11-11T10:36:23.216Z,8.9
2016-11-11T10:37:26.343Z,8.9
2016-11-11T10:38:29.469Z,9
2016-11-11T10:39:32.593Z,9.1
2016-11-11T10:40:35.715Z,9.2
2016-11-11T10:41:38.837Z,9.2
2016-11-11T10:42:41.965Z,8.9
2016-11-11T10:43:45.090Z,8.9
2016-11-11T10:44:48.221Z,9.1
2016-11-11T10:45:51.351Z,9.1
2016-11-11T10:46:54.471Z,9.1
2016-11-11T10:47:57.591Z,9.2
2016-11-11T10:49:00.717Z,9.1
2016-11-11T10:50:03.847Z,9.2
2016-11-11T10:51:06.974Z,9.2
2016-11-11T10:52:10.102Z,9.3
2016-11-11T10:53:13.224Z,9.3
2016-11-11T10:54:16.350Z,9.4
2016-11-11T10:55:19.483Z,9.4
2016-11-11T10:56:22.600Z,9.4
2016-11-11T10:57:25.723Z,9.5
2016-11-11T10:58:28.851Z,9.5
2016-11-11T10:59:32.271Z,9.6
2016-11-11T11:00:35.390Z,9.8
2016-11-11T11:01:38.520Z,9.8
2016-11-11T11:02:41.651Z,9.8
2016-11-11T11:03:44.781Z,9.8
2016-11-11T11:04:47.904Z,9.8
2016-11-11T11:05:51.032Z,9.8
2016-11-11T11:06:54.156Z,10
2016-11-11T11:07:57.289Z,9.8
2016-11-11T11:09:00.407Z,9.8
2016-11-11T11:11:12.136Z,9.8
2016-11-11T11:12:15.270Z,9.9
2016-11-11T11:13:25.425Z,9.9
2016-11-11T11:14:28.558Z,9.8
2016-11-11T11:15:38.715Z,9.5
2016-11-11T11:16:41.847Z,9.5
2016-11-11T11:17:44.974Z,9.5
2016-11-11T11:18:48.099Z,9.4
2016-11-11T11:19:58.392Z,9.3
2016-11-11T11:21:01.522Z,9.5
2016-11-11T11:22:12.978Z,9.6
2016-11-11T11:23:16.104Z,9.7
2016-11-11T11:24:19.236Z,9.7
2016-11-11T11:25:22.365Z,9.8
2016-11-11T11:26:33.949Z,9.9
2016-11-11T11:27:37.078Z,9.8
2016-11-11T11:28:47.241Z,10
2016-11-11T12:22:42.904Z,10.8
2016-11-11T12:23:46.032Z,10.5
2016-11-11T12:24:49.166Z,10.3
2016-11-11T12:25:52.296Z,10
2016-11-11T12:26:55.420Z,9.8
2016-11-11T12:27:58.550Z,9.8
2016-11-11T12:29:01.677Z,9.8
2016-11-11T12:30:04.798Z,9.5
2016-11-11T12:31:07.917Z,9.7
2016-11-11T12:32:11.047Z,10.1
2016-11-11T12:33:14.180Z,10
2016-11-11T12:34:17.314Z,10.2
2016-11-11T12:35:20.443Z,10.2
2016-11-11T12:36:23.592Z,10.3
2016-11-11T12:37:26.717Z,10.2
2016-11-11T12:38:29.843Z,10
2016-11-11T12:39:32.969Z,9.9
2016-11-11T12:40:36.099Z,9.9
2016-11-11T12:41:39.224Z,9.9
2016-11-11T12:42:42.357Z,9.7
2016-11-11T12:43:45.485Z,9.8
2016-11-11T12:44:48.614Z,9.9
2016-11-11T12:45:51.746Z,9.8
2016-11-11T12:46:54.862Z,9.9
2016-11-11T12:47:57.982Z,9.9
2016-11-11T12:49:01.108Z,9.9
2016-11-11T12:50:04.234Z,9.9
2016-11-11T12:51:07.356Z,9.9
2016-11-11T12:52:10.488Z,10
2016-11-11T12:53:13.620Z,10
2016-11-11T12:54:17.045Z,9.9
2016-11-11T12:55:20.165Z,9.7
2016-11-11T12:56:23.301Z,9.7
2016-11-11T12:57:26.429Z,9.4
2016-11-11T12:58:29.559Z,9.4
2016-11-11T12:59:32.678Z,9.6
2016-11-11T13:00:35.804Z,9.6
2016-11-11T13:01:38.925Z,9.7
2016-11-11T13:02:42.049Z,9.8
2016-11-11T13:03:45.180Z,9.8
2016-11-11T13:04:48.303Z,9.6
2016-11-11T13:05:51.425Z,9.3
2016-11-11T13:06:54.546Z,9.1
2016-11-11T13:07:57.666Z,9.1
2016-11-11T13:09:00.791Z,9.2
2016-11-11T13:10:03.918Z,9.3
2016-11-11T13:11:07.050Z,9.3
2016-11-11T13:12:10.171Z,9.3
2016-11-11T13:13:13.304Z,9.4
2016-11-11T13:14:16.432Z,9.6
2016-11-11T13:15:19.547Z,9.7
2016-11-11T13:16:22.673Z,9.4
2016-11-11T13:17:25.822Z,9.6
2016-11-11T13:18:28.957Z,9.6
2016-11-11T13:19:32.079Z,9.5
2016-11-11T13:20:35.205Z,9.1
2016-11-11T13:21:38.334Z,8.9
2016-11-11T13:22:41.466Z,8.4
2016-11-11T13:23:44.593Z,8.1
2016-11-11T13:24:47.721Z,7.8
2016-11-11T13:25:50.847Z,7.7
2016-11-11T13:26:53.968Z,7.3
2016-11-11T13:27:57.093Z,7.3
2016-11-11T13:29:00.221Z,7.3
2016-11-11T13:30:03.344Z,7.3
2016-11-11T13:31:06.472Z,7.3
2016-11-11T13:32:09.593Z,7
2016-11-11T13:33:12.719Z,7
2016-11-11T13:34:15.845Z,6.8
2016-11-11T13:35:18.968Z,6.7
2016-11-11T13:36:22.093Z,6.6
2016-11-11T13:37:25.222Z,6.5
2016-11-11T13:38:28.352Z,6.5
2016-11-11T13:39:31.477Z,6.6
2016-11-11T13:40:34.600Z,6.6
2016-11-11T13:41:37.724Z,6.5
2016-11-11T13:42:40.849Z,6.4
2016-11-11T13:43:43.979Z,6.3
2016-11-11T13:44:47.106Z,6.3
2016-11-11T13:45:50.232Z,6.2
2016-11-11T13:46:53.357Z,6.1
2016-11-11T13:47:56.482Z,6
2016-11-11T13:48:59.605Z,6
2016-11-11T13:50:06.388Z,5.9
2016-11-11T13:51:09.508Z,5.9
2016-11-11T13:52:12.635Z,6
2016-11-11T13:53:15.764Z,6
2016-11-11T13:54:19.100Z,6
2016-11-11T13:55:22.353Z,5.9
2016-11-11T13:56:25.479Z,5.9
2016-11-11T13:57:28.605Z,5.9
2016-11-11T13:58:31.727Z,5.9
2016-11-11T13:59:34.853Z,5.9
2016-11-11T14:00:37.980Z,5.9
2016-11-11T14:01:41.107Z,5.8
2016-11-11T14:02:44.231Z,5.8
2016-11-11T14:03:48.012Z,5.9
2016-11-11T14:04:51.137Z,5.9
2016-11-11T14:05:54.263Z,5.9
2016-11-11T14:06:57.393Z,5.9
2016-11-11T14:08:00.543Z,5.9
2016-11-11T14:09:03.667Z,5.8
2016-11-11T14:10:06.791Z,5.6
2016-11-11T14:11:09.914Z,5.6
2016-11-11T14:12:13.037Z,5.6
2016-11-11T14:13:16.808Z,5.5
2016-11-11T14:14:19.864Z,5.4
2016-11-11T14:15:22.981Z,5.4
2016-11-11T14:16:26.115Z,5.4
2016-11-11T14:17:29.239Z,5.3
2016-11-11T14:18:32.365Z,5.3
2016-11-11T14:19:35.480Z,5.2
2016-11-11T14:20:38.618Z,5.3
2016-11-11T14:21:41.734Z,5.3
2016-11-11T14:22:44.857Z,5.3
2016-11-11T14:23:47.975Z,5.3
2016-11-11T14:24:51.108Z,5.2
2016-11-11T14:25:54.238Z,5.2
2016-11-11T14:26:57.360Z,5.2
2016-11-11T14:28:00.496Z,5.2
2016-11-11T14:29:03.619Z,5.2
2016-11-11T14:30:06.741Z,5.1
2016-11-11T14:31:09.868Z,5.1
2016-11-11T14:32:13.001Z,5
2016-11-11T14:33:16.129Z,5
2016-11-11T14:34:19.255Z,5
2016-11-11T14:35:22.390Z,4.9
2016-11-11T14:36:25.516Z,4.9
2016-11-11T14:37:28.703Z,4.9
2016-11-11T14:38:31.835Z,4.9
2016-11-11T14:39:34.954Z,4.9
2016-11-11T14:40:38.076Z,4.9
2016-11-11T14:41:41.200Z,4.9
2016-11-11T14:42:44.334Z,4.8
2016-11-11T14:43:47.452Z,4.8
2016-11-11T14:44:50.580Z,4.6
2016-11-11T14:45:53.714Z,4.6
2016-11-11T14:46:56.838Z,4.4
2016-11-11T14:47:59.957Z,4.4
2016-11-11T14:49:03.081Z,4.3
2016-11-11T14:50:06.250Z,4.3
2016-11-11T14:51:09.372Z,4.1
2016-11-11T14:52:12.493Z,4.1
2016-11-11T14:53:15.613Z,4.1
2016-11-11T14:54:18.739Z,4.1
2016-11-11T14:55:22.159Z,4.1
2016-11-11T14:56:25.287Z,4.1
2016-11-11T14:57:28.419Z,4.1
2016-11-11T14:58:31.546Z,4
2016-11-11T14:59:34.666Z,3.9
2016-11-11T15:00:37.788Z,3.8
2016-11-11T15:01:40.915Z,3.7
2016-11-11T15:02:44.042Z,3.8
2016-11-11T15:03:47.166Z,3.7
2016-11-11T15:04:50.298Z,3.6
2016-11-11T15:05:53.419Z,3.6
2016-11-11T15:06:56.551Z,3.6
2016-11-11T15:07:59.669Z,3.5
2016-11-11T15:09:02.791Z,3.5
2016-11-11T15:10:05.918Z,3.5
2016-11-11T15:11:09.190Z,3.4
2016-11-11T15:12:12.314Z,3.3
2016-11-11T15:13:15.440Z,3.3
2016-11-11T15:14:18.569Z,3.2
2016-11-11T15:15:21.697Z,3.1
2016-11-11T15:16:24.826Z,3.1
2016-11-11T15:17:27.947Z,3.1
2016-11-11T15:18:31.068Z,3.1
2016-11-11T15:19:34.195Z,3.1
2016-11-11T15:20:37.329Z,3.1
2016-11-11T15:21:40.454Z,3
2016-11-11T15:22:43.590Z,2.9
2016-11-11T15:23:46.714Z,2.7
2016-11-11T15:24:49.846Z,2.6
2016-11-11T15:25:52.972Z,2.6
2016-11-11T15:26:56.107Z,2.6
2016-11-11T15:27:59.234Z,2.6
2016-11-11T15:29:02.366Z,2.6
2016-11-11T15:30:05.484Z,2.6
2016-11-11T15:31:08.603Z,2.5
2016-11-11T15:32:11.735Z,2.4
2016-11-11T15:33:14.860Z,2.4
2016-11-11T15:34:17.987Z,2.5
2016-11-11T15:35:21.114Z,2.5
2016-11-11T15:36:24.247Z,2.5
2016-11-11T15:37:27.371Z,2.5
2016-11-11T15:38:30.494Z,2.5
2016-11-11T15:39:33.623Z,2.5
2016-11-11T15:40:36.747Z,2.5
2016-11-11T15:41:39.870Z,2.4
2016-11-11T15:42:42.995Z,2.4
2016-11-11T15:43:46.124Z,2.3
2016-11-11T15:44:49.252Z,2.3
2016-11-11T15:45:52.377Z,2.3
2016-11-11T15:46:55.512Z,2.3
2016-11-11T15:47:58.627Z,2.3
2016-11-11T15:49:01.756Z,2.3
2016-11-11T15:50:04.883Z,2.2
2016-11-11T15:51:08.000Z,2.1
2016-11-11T15:52:11.132Z,2.1
2016-11-11T15:53:14.256Z,2.1
2016-11-11T15:54:17.384Z,2.1
2016-11-11T15:55:20.505Z,2.1
2016-11-11T15:56:23.638Z,2.1
2016-11-11T15:57:26.753Z,2.1
2016-11-11T15:58:29.876Z,2.1
2016-11-11T15:59:32.997Z,2
2016-11-11T16:00:36.135Z,1.9
2016-11-11T16:01:39.248Z,1.9
2016-11-11T16:02:42.374Z,1.8
2016-11-11T16:03:45.504Z,1.8
2016-11-11T16:04:48.636Z,1.8
2016-11-11T16:05:51.755Z,1.8
2016-11-11T16:06:54.888Z,1.8
2016-11-11T16:07:58.013Z,1.8
2016-11-11T16:09:01.133Z,1.8
2016-11-11T16:10:04.255Z,1.8
2016-11-11T16:11:07.383Z,1.7
2016-11-11T16:12:10.506Z,1.7
2016-11-11T16:13:13.635Z,1.7
2016-11-11T16:14:16.768Z,1.7
2016-11-11T16:15:19.893Z,1.7
2016-11-11T16:16:23.011Z,1.7
2016-11-11T16:17:26.136Z,1.7
2016-11-11T16:18:29.127Z,1.7
2016-11-11T16:19:32.539Z,1.6
2016-11-11T16:20:35.673Z,1.6
2016-11-11T16:21:38.800Z,1.5
2016-11-11T16:22:41.928Z,1.6
2016-11-11T16:23:45.050Z,1.5
2016-11-11T16:24:48.281Z,1.6
2016-11-11T16:25:51.402Z,1.6
2016-11-11T16:26:54.527Z,1.6
2016-11-11T16:27:57.647Z,1.5
2016-11-11T16:29:00.784Z,1.4
2016-11-11T16:30:03.912Z,1.4
2016-11-11T16:31:07.038Z,1.4
2016-11-11T16:32:10.162Z,1.4
2016-11-11T16:33:13.290Z,1.4
2016-11-11T16:34:16.421Z,1.4
2016-11-11T16:35:19.550Z,1.3
2016-11-11T16:36:22.672Z,1.2
2016-11-11T16:37:25.795Z,1.2
2016-11-11T16:38:28.917Z,1.2
2016-11-11T16:39:32.047Z,1.2
2016-11-11T16:40:35.170Z,1.2
2016-11-11T16:41:38.297Z,1.2
2016-11-11T16:42:41.419Z,1.2
2016-11-11T16:43:44.544Z,1.3
2016-11-11T16:44:47.671Z,1.3
2016-11-11T16:45:50.796Z,1.3
2016-11-11T16:46:53.923Z,1.3
2016-11-11T16:47:57.048Z,1.4
2016-11-11T16:49:00.179Z,1.4
2016-11-11T16:50:03.304Z,1.4
2016-11-11T16:51:06.427Z,1.4
2016-11-11T16:52:09.550Z,1.3
2016-11-11T16:53:12.672Z,1.3
2016-11-11T16:54:15.796Z,1.3
2016-11-11T16:55:18.916Z,1.2
2016-11-11T16:56:22.041Z,1.1
2016-11-11T16:57:25.167Z,1.1
2016-11-11T16:58:28.292Z,1
2016-11-11T16:59:31.424Z,1
2016-11-11T17:00:34.542Z,1
2016-11-11T17:01:37.670Z,1
2016-11-11T17:02:40.794Z,1
2016-11-11T17:03:43.921Z,1
2016-11-11T17:04:47.043Z,1.1
2016-11-11T17:05:50.163Z,1.1
2016-11-11T17:06:53.286Z,1
2016-11-11T17:07:56.413Z,1.1
2016-11-11T17:08:59.535Z,1.1
2016-11-11T17:10:02.662Z,1.1
2016-11-11T17:11:05.788Z,1.2
2016-11-11T17:12:08.916Z,1.2
2016-11-11T17:13:12.039Z,1.1
2016-11-11T17:14:15.160Z,1.1
2016-11-11T17:15:18.284Z,1.1
2016-11-11T17:16:21.621Z,1
2016-11-11T17:17:24.750Z,1
2016-11-11T17:18:27.879Z,1.1
2016-11-11T17:19:30.994Z,1
2016-11-11T17:20:34.122Z,1
2016-11-11T17:21:37.241Z,1
2016-11-11T17:22:40.369Z,1
2016-11-11T17:23:43.490Z,1
2016-11-11T17:24:46.622Z,1
2016-11-11T17:25:49.742Z,1
2016-11-11T17:26:52.874Z,1
2016-11-11T17:27:56.002Z,0.9
2016-11-11T17:28:59.137Z,0.9
2016-11-11T17:30:02.257Z,0.9
2016-11-11T17:31:05.383Z,1
2016-11-11T17:32:08.515Z,1
2016-11-11T17:33:11.631Z,1
2016-11-11T17:34:14.756Z,1
2016-11-11T17:35:17.884Z,1
2016-11-11T17:36:21.013Z,1.1
2016-11-11T17:37:24.134Z,1.1
2016-11-11T17:38:27.262Z,1.1
2016-11-11T17:39:30.386Z,1
2016-11-11T17:40:33.508Z,1
2016-11-11T17:41:36.634Z,1
2016-11-11T17:42:39.760Z,1
2016-11-11T17:43:42.882Z,1
2016-11-11T17:44:46.009Z,1
2016-11-11T17:45:49.135Z,1
2016-11-11T17:46:52.480Z,1
2016-11-11T17:47:55.606Z,1
2016-11-11T17:48:58.738Z,0.9
2016-11-11T17:50:01.868Z,0.9
2016-11-11T17:51:04.991Z,0.9
2016-11-11T17:52:08.105Z,0.9
2016-11-11T17:53:11.243Z,0.9
2016-11-11T17:54:14.363Z,1
2016-11-11T17:55:17.489Z,1
2016-11-11T17:56:20.618Z,1.1
2016-11-11T17:57:23.755Z,1.1
2016-11-11T17:58:26.877Z,1.2
2016-11-11T17:59:30.002Z,1.2
2016-11-11T18:00:33.130Z,1.2
2016-11-11T18:01:36.255Z,1.2
2016-11-11T18:02:39.387Z,1.2
2016-11-11T18:03:42.517Z,1.2
2016-11-11T18:04:45.640Z,1.1
2016-11-11T18:05:48.773Z,1.1
2016-11-11T18:06:51.893Z,1.1
2016-11-11T18:07:55.022Z,1.1
2016-11-11T18:08:58.150Z,1.1
2016-11-11T18:10:01.268Z,1
2016-11-11T18:11:04.386Z,0.9
2016-11-11T18:12:07.509Z,0.9
2016-11-11T18:13:10.639Z,0.9
2016-11-11T18:14:13.766Z,0.8
2016-11-11T18:15:16.888Z,0.8
2016-11-11T18:16:20.010Z,0.8
2016-11-11T18:17:23.137Z,0.7
2016-11-11T18:18:26.259Z,0.7
2016-11-11T18:19:29.386Z,0.7
2016-11-11T18:20:32.508Z,0.7
2016-11-11T18:21:35.637Z,0.7
2016-11-11T18:22:38.768Z,0.7
2016-11-11T18:23:41.885Z,0.6
2016-11-11T18:24:45.008Z,0.6
2016-11-11T18:25:48.132Z,0.5
2016-11-11T18:26:51.255Z,0.5
2016-11-11T18:27:54.382Z,0.5
2016-11-11T18:28:57.509Z,0.4
2016-11-11T18:30:00.620Z,0.4
2016-11-11T18:31:03.746Z,0.4
2016-11-11T18:32:06.870Z,0.5
2016-11-11T18:33:09.999Z,0.5
2016-11-11T18:34:13.123Z,0.5
2016-11-11T18:35:16.249Z,0.5
2016-11-11T18:36:19.375Z,0.6
2016-11-11T18:37:22.507Z,0.6
2016-11-11T18:38:25.629Z,0.6
2016-11-11T18:39:28.762Z,0.6
2016-11-11T18:40:31.885Z,0.5
2016-11-11T18:41:35.011Z,0.6
2016-11-11T18:42:38.132Z,0.6
2016-11-11T18:43:41.264Z,0.5
2016-11-11T18:44:44.389Z,0.5
2016-11-11T18:45:47.515Z,0.5
2016-11-11T18:46:50.642Z,0.4
2016-11-11T18:47:53.766Z,0.4
2016-11-11T18:48:56.898Z,0.4
2016-11-11T18:50:00.015Z,0.5
2016-11-11T18:51:03.136Z,0.5
2016-11-11T18:52:06.269Z,0.5
2016-11-11T18:53:09.399Z,0.4
2016-11-11T18:54:12.524Z,0.4
2016-11-11T18:55:15.640Z,0.5
2016-11-11T18:56:18.773Z,0.5
2016-11-11T18:57:21.986Z,0.5
2016-11-11T18:58:25.113Z,0.4
2016-11-11T18:59:28.230Z,0.4
2016-11-11T19:00:31.364Z,0.4
2016-11-11T19:01:34.489Z,0.5
2016-11-11T19:02:37.611Z,0.4
2016-11-11T19:03:40.743Z,0.4
2016-11-11T19:04:43.875Z,0.4
2016-11-11T19:05:46.995Z,0.4
2016-11-11T19:06:50.123Z,0.4
2016-11-11T19:07:53.252Z,0.4
2016-11-11T19:08:56.371Z,0.3
2016-11-11T19:09:59.503Z,0.3
2016-11-11T19:11:02.622Z,0.3
2016-11-11T19:12:05.755Z,0.3
2016-11-11T19:13:08.877Z,0.3
2016-11-11T19:14:11.995Z,0.3
2016-11-11T19:15:15.122Z,0.3
2016-11-11T19:16:18.246Z,0.3
2016-11-11T19:17:21.373Z,0.3
2016-11-11T19:18:24.495Z,0.2
2016-11-11T19:19:27.629Z,0.3
2016-11-11T19:20:30.758Z,0.2
2016-11-11T19:21:33.884Z,0.2
2016-11-11T19:22:37.000Z,0.2
2016-11-11T19:23:40.130Z,0.2
2016-11-11T19:24:43.252Z,0.1
2016-11-11T19:25:46.375Z,0.2
2016-11-11T19:26:49.495Z,0.1
2016-11-11T19:27:52.627Z,0.1
2016-11-11T19:28:55.750Z,0.1
2016-11-11T19:29:58.883Z,0.1
2016-11-11T19:31:02.013Z,0.1
2016-11-11T19:32:05.136Z,0.1
2016-11-11T19:33:08.259Z,0.1
2016-11-11T19:34:11.386Z,0
2016-11-11T19:35:14.519Z,0.1
2016-11-11T19:36:17.648Z,0
2016-11-11T19:37:20.778Z,0
2016-11-11T19:38:23.905Z,0
2016-11-11T19:39:27.026Z,0
2016-11-11T19:40:30.156Z,0
2016-11-11T19:41:33.284Z,0
2016-11-11T19:42:36.415Z,0
2016-11-11T19:43:39.524Z,0
2016-11-11T19:44:42.651Z,0
2016-11-11T19:45:45.773Z,0.1
2016-11-11T19:46:48.894Z,0.1
2016-11-11T19:47:52.024Z,0
2016-11-11T19:48:55.159Z,0
2016-11-11T19:49:58.279Z,0
2016-11-11T19:51:01.401Z,0
2016-11-11T19:52:04.529Z,0
2016-11-11T19:53:07.656Z,0
2016-11-11T19:54:10.779Z,0
2016-11-11T19:55:13.898Z,-0.1
2016-11-11T19:56:17.032Z,-0.1
2016-11-11T19:57:20.159Z,0
2016-11-11T19:58:23.286Z,0
2016-11-11T19:59:26.411Z,-0.1
2016-11-11T20:00:29.541Z,0
2016-11-11T20:01:32.666Z,-0.1
2016-11-11T20:02:35.788Z,-0.1
2016-11-11T20:03:38.919Z,-0.1
2016-11-11T20:04:42.044Z,-0.1
2016-11-11T20:05:45.176Z,-0.2
2016-11-11T20:06:48.297Z,-0.2
2016-11-11T20:07:51.432Z,-0.2
2016-11-11T20:08:54.560Z,-0.1
2016-11-11T20:09:57.681Z,-0.1
2016-11-11T20:11:00.815Z,-0.2
2016-11-11T20:12:03.945Z,-0.2
2016-11-11T20:13:07.073Z,-0.2
2016-11-11T20:14:10.195Z,-0.2
2016-11-11T20:15:13.315Z,-0.2
2016-11-11T20:16:16.452Z,-0.2
2016-11-11T20:17:19.582Z,-0.2
2016-11-11T20:18:22.715Z,-0.2
2016-11-11T20:19:25.830Z,-0.2
2016-11-11T20:20:28.955Z,-0.2
2016-11-11T20:21:32.078Z,-0.2
2016-11-11T20:22:35.202Z,-0.2
2016-11-11T20:23:38.324Z,-0.3
2016-11-11T20:24:41.459Z,-0.3
2016-11-11T20:25:44.589Z,-0.3
2016-11-11T20:26:47.718Z,-0.3
2016-11-11T20:27:50.846Z,-0.3
2016-11-11T20:28:53.983Z,-0.3
2016-11-11T20:29:57.112Z,-0.3
2016-11-11T20:31:00.232Z,-0.3
2016-11-11T20:32:03.366Z,-0.3
2016-11-11T20:33:06.484Z,-0.3
2016-11-11T20:34:09.609Z,-0.3
2016-11-11T20:35:12.736Z,-0.3
2016-11-11T20:36:15.871Z,-0.3
2016-11-11T20:37:19.001Z,-0.3
2016-11-11T20:38:22.130Z,-0.3
2016-11-11T20:39:25.257Z,-0.4
2016-11-11T20:40:28.388Z,-0.4
2016-11-11T20:41:31.517Z,-0.4
2016-11-11T20:42:34.638Z,-0.4
2016-11-11T20:43:37.765Z,-0.4
2016-11-11T20:44:40.894Z,-0.5
2016-11-11T20:45:44.024Z,-0.5
2016-11-11T20:46:47.153Z,-0.5
2016-11-11T20:47:50.286Z,-0.5
2016-11-11T20:48:53.411Z,-0.5
2016-11-11T20:49:56.537Z,-0.5
2016-11-11T20:50:59.656Z,-0.5
2016-11-11T20:52:02.791Z,-0.4
2016-11-11T20:53:05.919Z,-0.4
2016-11-11T20:54:08.909Z,-0.4
2016-11-11T20:55:12.046Z,-0.4
2016-11-11T20:56:15.174Z,-0.4
2016-11-11T20:57:18.297Z,-0.4
2016-11-11T20:58:21.422Z,-0.4
2016-11-11T20:59:24.548Z,-0.4
2016-11-11T21:00:27.674Z,-0.4
2016-11-11T21:01:30.802Z,-0.4
2016-11-11T21:02:33.933Z,-0.4
2016-11-11T21:03:37.059Z,-0.4
2016-11-11T21:04:40.185Z,-0.4
2016-11-11T21:05:43.317Z,-0.4
2016-11-11T21:06:46.445Z,-0.4
2016-11-11T21:07:49.580Z,-0.4
2016-11-11T21:08:52.710Z,-0.4
2016-11-11T21:09:55.830Z,-0.4
2016-11-11T21:10:58.954Z,-0.4
2016-11-11T21:12:02.083Z,-0.4
2016-11-11T21:13:05.217Z,-0.5
2016-11-11T21:14:08.346Z,-0.5
2016-11-11T21:15:11.466Z,-0.5
2016-11-11T21:16:14.599Z,-0.5
2016-11-11T21:17:17.721Z,-0.5
2016-11-11T21:18:20.844Z,-0.5
2016-11-11T21:19:23.967Z,-0.5
2016-11-11T21:20:27.097Z,-0.5
2016-11-11T21:21:30.232Z,-0.5
2016-11-11T21:22:33.355Z,-0.5
2016-11-11T21:23:36.485Z,-0.6
2016-11-11T21:24:39.615Z,-0.6
2016-11-11T21:25:42.773Z,-0.6
2016-11-11T21:26:45.876Z,-0.6
2016-11-11T21:27:49.007Z,-0.6
2016-11-11T21:28:52.133Z,-0.7
2016-11-11T21:29:55.258Z,-0.7
2016-11-11T21:30:58.381Z,-0.7
2016-11-11T21:32:01.520Z,-0.6
2016-11-11T21:33:04.641Z,-0.7
2016-11-11T21:34:07.773Z,-0.6
2016-11-11T21:35:10.902Z,-0.7
2016-11-11T21:36:14.031Z,-0.7
2016-11-11T21:37:17.162Z,-0.7
2016-11-11T21:38:20.295Z,-0.7
2016-11-11T21:39:23.420Z,-0.6
2016-11-11T21:40:26.544Z,-0.6
2016-11-11T21:41:29.668Z,-0.6
2016-11-11T21:42:32.789Z,-0.6
2016-11-11T21:43:35.915Z,-0.6
2016-11-11T21:44:39.052Z,-0.6
2016-11-11T21:45:42.172Z,-0.7
2016-11-11T21:46:45.295Z,-0.8
2016-11-11T21:47:48.415Z,-0.8
2016-11-11T21:48:51.549Z,-0.8
2016-11-11T21:49:54.670Z,-0.8
2016-11-11T21:50:57.797Z,-0.9
2016-11-11T21:52:00.935Z,-0.9
2016-11-11T21:53:04.068Z,-0.9
2016-11-11T21:54:07.192Z,-0.9
2016-11-11T21:55:10.318Z,-1
2016-11-11T21:56:13.447Z,-1
2016-11-11T21:57:16.573Z,-1
2016-11-11T21:58:19.707Z,-1
2016-11-11T21:59:22.834Z,-1
2016-11-11T22:00:25.959Z,-1
2016-11-11T22:01:29.082Z,-1
2016-11-11T22:02:32.213Z,-0.9
2016-11-11T22:03:35.339Z,-0.9
2016-11-11T22:04:38.473Z,-1
2016-11-11T22:05:41.607Z,-1
2016-11-11T22:06:44.721Z,-1.1
2016-11-11T22:07:47.856Z,-1.1
2016-11-11T22:08:50.983Z,-1.1
2016-11-11T22:09:54.117Z,-1.1
2016-11-11T22:10:57.239Z,-1
2016-11-11T22:12:00.374Z,-1
2016-11-11T22:13:03.497Z,-0.9
2016-11-11T22:14:06.621Z,-0.9
2016-11-11T22:15:09.740Z,-1
2016-11-11T22:16:12.878Z,-1
2016-11-11T22:17:16.008Z,-1.1
2016-11-11T22:18:19.136Z,-1.1
2016-11-11T22:19:22.267Z,-1.2
2016-11-11T22:20:25.394Z,-1.1
2016-11-11T22:21:28.520Z,-1.2
2016-11-11T22:22:31.647Z,-1.2
2016-11-11T22:23:34.780Z,-1.1
2016-11-11T22:24:37.902Z,-1.1
2016-11-11T22:25:41.026Z,-1.1
2016-11-11T22:26:44.156Z,-1.1
2016-11-11T22:27:47.288Z,-1.1
2016-11-11T22:28:50.426Z,-1.1
2016-11-11T22:29:53.545Z,-1.1
2016-11-11T22:30:56.669Z,-1.1
2016-11-11T22:31:59.797Z,-1.1
2016-11-11T22:33:02.928Z,-1.1
2016-11-11T22:34:06.054Z,-1.1
2016-11-11T22:35:09.178Z,-1.1
2016-11-11T22:36:12.307Z,-1.1
2016-11-11T22:37:15.442Z,-1.1
2016-11-11T22:38:18.569Z,-1.1
2016-11-11T22:39:21.694Z,-1.1
2016-11-11T22:40:24.811Z,-1.1
2016-11-11T22:41:27.944Z,-1.1
2016-11-11T22:42:31.070Z,-1.2
2016-11-11T22:43:34.200Z,-1.2
2016-11-11T22:44:37.319Z,-1.2
2016-11-11T22:45:40.447Z,-1.2
2016-11-11T22:46:43.585Z,-1.2
2016-11-11T22:47:46.716Z,-1.2
2016-11-11T22:48:49.848Z,-1.2
2016-11-11T22:49:52.982Z,-1.2
2016-11-11T22:50:56.113Z,-1.2
2016-11-11T22:51:59.245Z,-1.2
2016-11-11T22:53:02.369Z,-1.2
2016-11-11T22:54:05.495Z,-1.2
2016-11-11T22:55:08.619Z,-1.3
2016-11-11T22:56:11.749Z,-1.3
2016-11-11T22:57:14.871Z,-1.3
2016-11-11T22:58:17.997Z,-1.3
2016-11-11T22:59:21.137Z,-1.4
2016-11-11T23:00:24.271Z,-1.4
2016-11-11T23:01:27.398Z,-1.4
2016-11-11T23:02:30.527Z,-1.3
2016-11-11T23:03:33.656Z,-1.3
2016-11-11T23:04:36.783Z,-1.2
2016-11-11T23:05:39.910Z,-1.2
2016-11-11T23:06:43.040Z,-1.2
2016-11-11T23:07:46.167Z,-1.2
2016-11-11T23:08:49.300Z,-1.1
2016-11-11T23:09:52.432Z,-1.1
2016-11-11T23:10:55.560Z,-1.1
2016-11-11T23:11:58.682Z,-1.1
2016-11-11T23:13:01.819Z,-1.1
2016-11-11T23:14:04.943Z,-1.1
2016-11-11T23:15:08.067Z,-1.1
2016-11-11T23:16:11.194Z,-1.1
2016-11-11T23:17:14.328Z,-1.2
2016-11-11T23:18:17.455Z,-1.2
2016-11-11T23:19:20.573Z,-1.2
2016-11-11T23:20:23.714Z,-1.2
2016-11-11T23:21:26.826Z,-1.2
2016-11-11T23:22:29.948Z,-1.2
2016-11-11T23:23:33.072Z,-1.2
2016-11-11T23:24:36.205Z,-1.2
2016-11-11T23:25:39.330Z,-1.2
2016-11-11T23:26:42.460Z,-1.3
2016-11-11T23:27:45.594Z,-1.3
2016-11-11T23:28:48.723Z,-1.3
2016-11-11T23:29:51.845Z,-1.3
2016-11-11T23:30:54.976Z,-1.3
2016-11-11T23:31:58.102Z,-1.3
2016-11-11T23:33:01.234Z,-1.3